createdAt,value
2023-02-12T00:00:35.395Z,100337.88
2023-02-12T00:03:01.875Z,100339.53
2023-02-12T00:05:28.336Z,100334.28
2023-02-12T00:07:54.847Z,100338.13
2023-02-12T00:10:21.339Z,100339.22
2023-02-12T00:12:47.859Z,100333.44
2023-02-12T00:15:14.559Z,100336.19
2023-02-12T00:17:41.026Z,100332.34
2023-02-12T00:20:07.982Z,100334.53
2023-02-12T00:22:34.467Z,100338.41
2023-02-12T00:25:00.944Z,100333.44
2023-02-12T00:27:27.397Z,100332.91
2023-02-12T00:29:53.870Z,100330.69
2023-02-12T00:32:20.389Z,100330.69
2023-02-12T00:34:47.173Z,100334.84
2023-02-12T00:37:13.646Z,100332.34
2023-02-12T00:39:40.139Z,100332.91
2023-02-12T00:42:06.648Z,100326.28
2023-02-12T00:44:33.215Z,100337.31
2023-02-12T00:47:02.358Z,100335.13
2023-02-12T00:49:34.212Z,100335.66
2023-02-12T00:52:01.677Z,100343.09
2023-02-12T00:54:28.829Z,100342.53
2023-02-12T00:56:58.133Z,100338.97
2023-02-12T00:59:25.085Z,100335.38
2023-02-12T01:01:52.110Z,100343.38
2023-02-12T01:04:18.643Z,100333.16
2023-02-12T01:06:45.137Z,100331.78
2023-02-12T01:09:11.722Z,100340.06
2023-02-12T01:11:38.482Z,100339.25
2023-02-12T01:14:04.994Z,100340.06
2023-02-12T01:16:36.489Z,100333.75
2023-02-12T01:19:04.270Z,100336.50
2023-02-12T01:21:31.715Z,100345.56
2023-02-12T01:23:58.252Z,100327.41
2023-02-12T01:26:24.832Z,100335.66
2023-02-12T01:28:56.276Z,100346.72
2023-02-12T01:31:27.859Z,100340.88
2023-02-12T01:33:56.152Z,100343.13
2023-02-12T01:36:22.896Z,100332.63
2023-02-12T01:38:49.430Z,100342.56
2023-02-12T01:41:19.573Z,100337.31
2023-02-12T01:43:46.601Z,100342.56
2023-02-12T01:46:13.704Z,100340.38
2023-02-12T01:48:44.820Z,100347.53
2023-02-12T01:51:12.788Z,100347.53
2023-02-12T01:53:42.589Z,100349.47
2023-02-12T01:56:09.581Z,100342.84
2023-02-12T01:58:38.654Z,100346.44
2023-02-12T02:01:06.973Z,100351.09
2023-02-12T02:03:34.066Z,100346.97
2023-02-12T02:06:03.782Z,100340.09
2023-02-12T02:08:30.586Z,100345.31
2023-02-12T02:10:57.360Z,100336.47
2023-02-12T02:13:42.467Z,100338.41
2023-02-12T02:16:21.222Z,100333.19
2023-02-12T02:18:55.681Z,100337.84
2023-02-12T02:21:33.477Z,100340.63
2023-02-12T02:24:37.509Z,100340.63
2023-02-12T02:27:20.345Z,100343.13
2023-02-12T02:30:11.704Z,100334.56
2023-02-12T02:32:51.250Z,100332.63
2023-02-12T02:35:30.217Z,100332.63
2023-02-12T02:38:18.647Z,100327.13
2023-02-12T02:40:54.513Z,100332.06
2023-02-12T02:43:30.289Z,100334.28
2023-02-12T02:46:01.349Z,100329.31
2023-02-12T02:48:32.571Z,100341.16
2023-02-12T02:51:09.383Z,100340.63
2023-02-12T02:53:44.070Z,100341.19
2023-02-12T02:56:14.060Z,100346.16
2023-02-12T02:58:46.549Z,100343.09
2023-02-12T03:01:22.435Z,100334.03
2023-02-12T03:04:03.652Z,100340.91
2023-02-12T03:06:34.709Z,100327.41
2023-02-12T03:09:05.308Z,100337.31
2023-02-12T03:11:33.486Z,100338.69
2023-02-12T03:14:13.509Z,100333.19
2023-02-12T03:16:59.114Z,100343.13
2023-02-12T03:19:27.045Z,100344.75
2023-02-12T03:21:57.659Z,100348.34
2023-02-12T03:24:33.124Z,100358.28
2023-02-12T03:27:20.737Z,100351.41
2023-02-12T03:29:47.280Z,100358.00
2023-02-12T03:32:53.349Z,100345.31
2023-02-12T03:35:24.195Z,100350.84
2023-02-12T03:38:16.622Z,100352.50
2023-02-12T03:40:56.274Z,100354.97
2023-02-12T03:43:25.551Z,100353.31
2023-02-12T03:45:58.139Z,100350.28
2023-02-12T03:48:28.598Z,100348.09
2023-02-12T03:50:58.490Z,100349.44
2023-02-12T03:53:26.324Z,100354.69
2023-02-12T03:55:56.458Z,100359.09
2023-02-12T03:58:23.587Z,100366.28
2023-02-12T04:00:50.351Z,100367.09
2023-02-12T04:03:16.853Z,100363.78
2023-02-12T04:05:43.333Z,100377.03
2023-02-12T04:08:10.345Z,100370.13
2023-02-12T04:10:53.924Z,100377.56
2023-02-12T04:13:33.032Z,100378.66
2023-02-12T04:16:07.701Z,100382.25
2023-02-12T04:18:40.475Z,100386.38
2023-02-12T04:21:25.193Z,100386.94
2023-02-12T04:24:00.632Z,100379.25
2023-02-12T04:26:34.330Z,100384.16
2023-02-12T04:29:17.215Z,100384.72
2023-02-12T04:31:49.901Z,100400.16
2023-02-12T04:34:34.677Z,100405.69
2023-02-12T04:37:33.133Z,100405.69
2023-02-12T04:40:00.025Z,100400.16
2023-02-12T04:42:26.522Z,100402.94
2023-02-12T04:44:52.994Z,100409.25
2023-02-12T04:47:19.462Z,100409.25
2023-02-12T04:49:45.949Z,100413.97
2023-02-12T04:52:12.418Z,100410.91
2023-02-12T04:54:38.917Z,100417.81
2023-02-12T04:57:05.394Z,100414.78
2023-02-12T04:59:31.875Z,100410.09
2023-02-12T05:01:58.406Z,100415.81
2023-02-12T05:04:24.879Z,100415.91
2023-02-12T05:06:51.392Z,100428.56
2023-02-12T05:09:19.184Z,100426.56
2023-02-12T05:11:45.677Z,100427.09
2023-02-12T05:14:12.222Z,100430.41
2023-02-12T05:16:38.760Z,100430.69
2023-02-12T05:19:05.289Z,100433.72
2023-02-12T05:21:31.762Z,100429.31
2023-02-12T05:23:58.373Z,100434.91
2023-02-12T05:26:24.850Z,100441.22
2023-02-12T05:28:51.314Z,100441.47
2023-02-12T05:31:21.146Z,100434.28
2023-02-12T05:33:48.182Z,100444.44
2023-02-12T05:36:16.316Z,100444.97
2023-02-12T05:38:42.916Z,100440.84
2023-02-12T05:41:14.377Z,100446.63
2023-02-12T05:43:41.012Z,100445.81
2023-02-12T05:46:07.765Z,100439.47
2023-02-12T05:48:34.271Z,100444.44
2023-02-12T05:51:12.461Z,100451.91
2023-02-12T05:53:39.137Z,100450.53
2023-02-12T05:56:16.403Z,100451.38
2023-02-12T05:58:44.585Z,100452.47
2023-02-12T06:01:13.132Z,100449.13
2023-02-12T06:03:39.684Z,100456.16
2023-02-12T06:06:06.346Z,100462.75
2023-02-12T06:08:33.070Z,100465.22
2023-02-12T06:11:01.468Z,100457.19
2023-02-12T06:13:28.114Z,100457.44
2023-02-12T06:15:55.004Z,100461.81
2023-02-12T06:18:21.722Z,100458.25
2023-02-12T06:20:48.404Z,100459.06
2023-02-12T06:23:14.973Z,100465.69
2023-02-12T06:25:41.429Z,100464.00
2023-02-12T06:28:07.954Z,100463.72
2023-02-12T06:30:34.941Z,100460.97
2023-02-12T06:33:01.672Z,100470.66
2023-02-12T06:35:28.365Z,100470.09
2023-02-12T06:37:54.850Z,100469.28
2023-02-12T06:40:21.373Z,100475.03
2023-02-12T06:42:50.127Z,100488.28
2023-02-12T06:45:16.817Z,100485.75
2023-02-12T06:47:43.318Z,100489.91
2023-02-12T06:50:10.072Z,100491.31
2023-02-12T06:52:36.550Z,100498.75
2023-02-12T06:55:03.030Z,100495.44
2023-02-12T06:57:29.960Z,100491.84
2023-02-12T06:59:56.668Z,100502.03
2023-02-12T07:02:23.165Z,100503.72
2023-02-12T07:04:49.632Z,100508.72
2023-02-12T07:07:16.121Z,100511.19
2023-02-12T07:09:42.583Z,100515.84
2023-02-12T07:12:09.050Z,100518.06
2023-02-12T07:14:35.530Z,100525.25
2023-02-12T07:17:03.846Z,100533.50
2023-02-12T07:19:30.685Z,100525.50
2023-02-12T07:21:57.212Z,100541.78
2023-02-12T07:24:23.706Z,100541.25
2023-02-12T07:26:50.181Z,100544.53
2023-02-12T07:29:17.159Z,100548.50
2023-02-12T07:31:43.679Z,100546.22
2023-02-12T07:34:10.479Z,100549.78
2023-02-12T07:36:37.019Z,100548.13
2023-02-12T07:39:03.678Z,100555.38
2023-02-12T07:41:31.759Z,100552.84
2023-02-12T07:43:59.877Z,100561.13
2023-02-12T07:46:31.113Z,100562.22
2023-02-12T07:48:58.663Z,100561.72
2023-02-12T07:51:25.173Z,100563.94
2023-02-12T07:53:51.651Z,100566.69
2023-02-12T07:56:22.636Z,100571.13
2023-02-12T07:58:51.815Z,100567.22
2023-02-12T08:01:35.261Z,100571.69
2023-02-12T08:04:09.903Z,100573.63
2023-02-12T08:06:38.763Z,100577.53
2023-02-12T08:09:08.129Z,100579.72
2023-02-12T08:11:34.639Z,100578.31
2023-02-12T08:14:01.154Z,100579.69
2023-02-12T08:16:28.109Z,100582.78
2023-02-12T08:18:55.307Z,100579.41
2023-02-12T08:21:23.143Z,100590.47
2023-02-12T08:23:52.559Z,100589.38
2023-02-12T08:26:19.896Z,100581.94
2023-02-12T08:28:48.497Z,100596.03
2023-02-12T08:31:23.015Z,100595.75
2023-02-12T08:33:50.150Z,100589.94
2023-02-12T08:36:18.942Z,100594.69
2023-02-12T08:38:45.697Z,100583.59
2023-02-12T08:41:21.340Z,100594.91
2023-02-12T08:43:49.231Z,100601.31
2023-02-12T08:46:20.357Z,100598.81
2023-02-12T08:48:47.000Z,100585.84
2023-02-12T08:51:15.299Z,100591.66
2023-02-12T08:53:42.832Z,100597.75
2023-02-12T08:56:09.562Z,100586.13
2023-02-12T08:58:36.202Z,100588.38
2023-02-12T09:01:03.351Z,100579.81
2023-02-12T09:03:29.896Z,100583.72
2023-02-12T09:05:56.732Z,100583.19
2023-02-12T09:08:23.369Z,100582.06
2023-02-12T09:10:49.829Z,100582.34
2023-02-12T09:13:16.366Z,100570.75
2023-02-12T09:15:45.079Z,100573.50
2023-02-12T09:18:12.361Z,100572.69
2023-02-12T09:20:40.001Z,100567.19
2023-02-12T09:23:07.409Z,100570.50
2023-02-12T09:25:37.796Z,100566.38
2023-02-12T09:28:04.662Z,100566.38
2023-02-12T09:30:31.221Z,100562.50
2023-02-12T09:32:57.743Z,100551.75
2023-02-12T09:35:24.409Z,100569.16
2023-02-12T09:37:52.567Z,100559.50
2023-02-12T09:40:27.097Z,100560.03
2023-02-12T09:43:30.690Z,100550.38
2023-02-12T09:46:16.927Z,100550.38
2023-02-12T09:48:51.529Z,100545.41
2023-02-12T09:51:20.868Z,100537.38
2023-02-12T09:53:48.401Z,100544.28
2023-02-12T09:56:19.072Z,100536.59
2023-02-12T09:58:46.660Z,100539.34
2023-02-12T10:01:15.058Z,100541.25
2023-02-12T10:03:41.614Z,100539.88
2023-02-12T10:06:11.669Z,100540.72
2023-02-12T10:08:59.292Z,100524.97
2023-02-12T10:11:52.698Z,100518.31
2023-02-12T10:14:42.111Z,100521.91
2023-02-12T10:17:43.357Z,100518.84
2023-02-12T10:20:32.040Z,100516.59
2023-02-12T10:23:34.217Z,100516.81
2023-02-12T10:26:42.713Z,100507.16
2023-02-12T10:29:20.628Z,100508.53
2023-02-12T10:31:50.492Z,100494.22
2023-02-12T10:34:18.499Z,100498.09
2023-02-12T10:36:49.551Z,100490.06
2023-02-12T10:39:24.280Z,100487.31
2023-02-12T10:41:53.408Z,100492.84
2023-02-12T10:44:19.921Z,100484.88
2023-02-12T10:46:46.453Z,100487.63
2023-02-12T10:49:15.118Z,100492.34
2023-02-12T10:52:07.377Z,100489.31
2023-02-12T10:54:43.839Z,100489.06
2023-02-12T10:57:12.398Z,100500.66
2023-02-12T10:59:39.937Z,100500.09
2023-02-12T11:02:28.002Z,100501.22
2023-02-12T11:04:55.103Z,100493.19
2023-02-12T11:07:21.717Z,100504.53
2023-02-12T11:09:49.679Z,100504.53
2023-02-12T11:12:40.908Z,100505.91
2023-02-12T11:15:15.827Z,100500.94
2023-02-12T11:17:44.005Z,100499.56
2023-02-12T11:20:16.517Z,100500.09
2023-02-12T11:22:52.898Z,100497.91
2023-02-12T11:25:19.453Z,100497.31
2023-02-12T11:27:46.188Z,100498.69
2023-02-12T11:30:15.606Z,100496.72
2023-02-12T11:32:42.943Z,100485.97
2023-02-12T11:35:23.841Z,100481.59
2023-02-12T11:37:50.397Z,100483.81
2023-02-12T11:40:21.945Z,100490.63
2023-02-12T11:42:51.992Z,100479.06
2023-02-12T11:45:19.394Z,100491.69
2023-02-12T11:47:46.472Z,100485.06
2023-02-12T11:50:26.409Z,100471.00
2023-02-12T11:52:54.510Z,100478.13
2023-02-12T11:55:23.643Z,100473.44
2023-02-12T11:57:52.010Z,100461.34
2023-02-12T12:00:33.587Z,100453.38
2023-02-12T12:03:19.492Z,100458.03
2023-02-12T12:05:49.268Z,100467.41
2023-02-12T12:08:28.105Z,100466.81
2023-02-12T12:11:01.912Z,100464.66
2023-02-12T12:13:32.428Z,100464.38
2023-02-12T12:16:27.862Z,100461.88
2023-02-12T12:19:18.252Z,100460.22
2023-02-12T12:21:50.651Z,100464.94
2023-02-12T12:24:16.981Z,100467.41
2023-02-12T12:26:46.489Z,100462.47
2023-02-12T12:29:20.163Z,100461.63
2023-02-12T12:31:48.547Z,100463.81
2023-02-12T12:34:22.481Z,100457.69
2023-02-12T12:37:05.221Z,100460.22
2023-02-12T12:39:50.355Z,100455.47
2023-02-12T12:42:20.117Z,100456.56
2023-02-12T12:45:03.188Z,100452.16
2023-02-12T12:47:38.882Z,100445.84
2023-02-12T12:50:32.128Z,100447.72
2023-02-12T12:53:01.157Z,100451.31
2023-02-12T12:55:36.656Z,100438.50
2023-02-12T12:58:13.050Z,100434.34
2023-02-12T13:01:06.142Z,100427.22
2023-02-12T13:03:52.941Z,100423.09
2023-02-12T13:06:40.106Z,100423.84
2023-02-12T13:09:36.765Z,100414.72
2023-02-12T13:12:39.363Z,100410.97
2023-02-12T13:15:27.014Z,100418.75
2023-02-12T13:18:12.551Z,100417.94
2023-02-12T13:20:42.654Z,100416.56
2023-02-12T13:23:15.779Z,100407.97
2023-02-12T13:26:04.648Z,100398.31
2023-02-12T13:28:34.909Z,100407.44
2023-02-12T13:31:01.344Z,100410.47
2023-02-12T13:33:39.153Z,100418.75
2023-02-12T13:36:06.054Z,100404.69
2023-02-12T13:38:44.215Z,100415.97
2023-02-12T13:41:10.866Z,100417.38
2023-02-12T13:43:49.222Z,100418.75
2023-02-12T13:46:21.700Z,100420.13
2023-02-12T13:49:18.697Z,100413.25
2023-02-12T13:51:47.252Z,100414.31
2023-02-12T13:54:35.065Z,100418.22
2023-02-12T13:57:02.106Z,100413.84
2023-02-12T13:59:31.954Z,100417.69
2023-02-12T14:02:25.193Z,100416.56
2023-02-12T14:04:56.619Z,100409.66
2023-02-12T14:07:23.081Z,100407.22
2023-02-12T14:09:49.447Z,100414.41
2023-02-12T14:12:24.957Z,100415.56
2023-02-12T14:14:53.611Z,100414.75
2023-02-12T14:17:29.214Z,100417.28
2023-02-12T14:20:27.139Z,100423.31
2023-02-12T14:22:58.028Z,100427.47
2023-02-12T14:25:24.412Z,100417.50
2023-02-12T14:28:21.323Z,100424.97
2023-02-12T14:30:47.911Z,100422.19
2023-02-12T14:33:21.077Z,100430.50
2023-02-12T14:36:20.774Z,100426.06
2023-02-12T14:38:48.064Z,100422.47
2023-02-12T14:41:34.036Z,100426.03
2023-02-12T14:44:23.224Z,100428.84
2023-02-12T14:46:59.831Z,100421.41
2023-02-12T14:49:46.549Z,100414.47
2023-02-12T14:52:12.844Z,100426.63
2023-02-12T14:54:46.225Z,100426.13
2023-02-12T14:57:30.064Z,100427.19
2023-02-12T15:00:16.770Z,100423.88
2023-02-12T15:02:50.985Z,100421.16
2023-02-12T15:05:25.984Z,100422.81
2023-02-12T15:08:00.643Z,100429.97
2023-02-12T15:10:33.101Z,100430.84
2023-02-12T15:13:08.076Z,100430.81
2023-02-12T15:15:51.266Z,100433.28
2023-02-12T15:18:37.326Z,100428.03
2023-02-12T15:21:09.849Z,100426.97
2023-02-12T15:23:46.049Z,100421.19
2023-02-12T15:26:18.037Z,100420.03
2023-02-12T15:28:46.672Z,100427.53
2023-02-12T15:31:19.533Z,100414.00
2023-02-12T15:33:49.175Z,100417.31
2023-02-12T15:36:20.846Z,100420.91
2023-02-12T15:38:54.092Z,100422.81
2023-02-12T15:41:28.431Z,100426.16
2023-02-12T15:43:54.958Z,100417.31
2023-02-12T15:46:21.507Z,100417.31
2023-02-12T15:48:48.105Z,100420.91
2023-02-12T15:51:30.411Z,100411.50
2023-02-12T15:53:57.446Z,100409.84
2023-02-12T15:56:24.458Z,100402.94
2023-02-12T15:58:55.531Z,100399.09
2023-02-12T16:01:27.063Z,100399.09
2023-02-12T16:03:55.668Z,100406.81
2023-02-12T16:06:22.457Z,100410.41
2023-02-12T16:09:15.094Z,100414.00
2023-02-12T16:11:45.699Z,100409.88
2023-02-12T16:14:36.605Z,100412.38
2023-02-12T16:17:03.162Z,100420.06
2023-02-12T16:19:32.836Z,100421.75
2023-02-12T16:22:06.955Z,100422.28
2023-02-12T16:24:35.392Z,100429.19
2023-02-12T16:27:08.324Z,100439.41
2023-02-12T16:29:37.029Z,100441.59
2023-02-12T16:32:03.625Z,100443.25
2023-02-12T16:34:37.456Z,100445.19
2023-02-12T16:37:41.037Z,100455.13
2023-02-12T16:40:21.875Z,100454.00
2023-02-12T16:42:48.180Z,100460.34
2023-02-12T16:45:27.378Z,100454.00
2023-02-12T16:48:06.900Z,100461.44
2023-02-12T16:50:36.378Z,100458.94
2023-02-12T16:53:04.562Z,100456.44
2023-02-12T16:55:31.019Z,100463.38
2023-02-12T16:57:57.513Z,100463.63
2023-02-12T17:00:24.904Z,100464.72
2023-02-12T17:02:51.421Z,100461.97
2023-02-12T17:05:18.403Z,100463.59
2023-02-12T17:07:45.017Z,100466.09
2023-02-12T17:10:15.049Z,100470.56
2023-02-12T17:12:59.765Z,100462.28
2023-02-12T17:15:28.819Z,100462.59
2023-02-12T17:17:55.325Z,100453.72
2023-02-12T17:20:21.817Z,100459.75
2023-02-12T17:22:50.713Z,100460.34
2023-02-12T17:25:17.286Z,100462.00
2023-02-12T17:27:43.752Z,100469.72
2023-02-12T17:30:14.274Z,100466.41
2023-02-12T17:32:40.744Z,100477.97
2023-02-12T17:35:07.535Z,100476.91
2023-02-12T17:37:34.096Z,100472.50
2023-02-12T17:40:01.394Z,100469.50
2023-02-12T17:42:27.895Z,100476.63
2023-02-12T17:44:54.552Z,100472.47
2023-02-12T17:47:21.064Z,100477.41
2023-02-12T17:49:47.676Z,100480.69
2023-02-12T17:52:14.170Z,100483.25
2023-02-12T17:54:40.643Z,100480.75
2023-02-12T17:57:07.154Z,100480.22
2023-02-12T17:59:33.642Z,100469.13
2023-02-12T18:02:00.456Z,100476.56
2023-02-12T18:04:27.150Z,100477.41
2023-02-12T18:06:53.684Z,100488.44
2023-02-12T18:09:20.161Z,100486.28
2023-02-12T18:11:46.628Z,100476.88
2023-02-12T18:14:13.092Z,100482.13
2023-02-12T18:16:39.610Z,100476.59
2023-02-12T18:19:06.551Z,100469.13
2023-02-12T18:21:34.897Z,100477.69
2023-02-12T18:24:01.438Z,100474.97
2023-02-12T18:26:27.961Z,100472.75
2023-02-12T18:28:56.222Z,100469.72
2023-02-12T18:31:22.816Z,100468.34
2023-02-12T18:33:49.345Z,100466.66
2023-02-12T18:36:17.863Z,100463.84
2023-02-12T18:38:45.256Z,100462.75
2023-02-12T18:41:19.693Z,100466.88
2023-02-12T18:43:46.533Z,100476.88
2023-02-12T18:46:18.206Z,100473.28
2023-02-12T18:48:44.986Z,100473.25
2023-02-12T18:51:14.327Z,100472.13
2023-02-12T18:53:41.089Z,100480.94
2023-02-12T18:56:08.533Z,100475.16
2023-02-12T18:58:35.212Z,100479.78
2023-02-12T19:01:01.725Z,100479.53
2023-02-12T19:03:28.227Z,100483.19
2023-02-12T19:05:54.707Z,100479.31
2023-02-12T19:08:21.195Z,100480.72
2023-02-12T19:10:49.448Z,100477.69
2023-02-12T19:13:15.997Z,100476.03
2023-02-12T19:15:42.583Z,100469.69
2023-02-12T19:18:09.089Z,100467.44
2023-02-12T19:20:35.582Z,100466.94
2023-02-12T19:23:02.081Z,100468.03
2023-02-12T19:25:28.855Z,100472.66
2023-02-12T19:27:55.338Z,100473.50
2023-02-12T19:30:21.871Z,100470.16
2023-02-12T19:32:48.340Z,100471.50
2023-02-12T19:35:14.825Z,100474.34
2023-02-12T19:37:41.314Z,100473.81
2023-02-12T19:40:08.107Z,100469.09
2023-02-12T19:42:34.778Z,100469.59
2023-02-12T19:45:01.269Z,100477.94
2023-02-12T19:47:27.749Z,100469.66
2023-02-12T19:49:54.755Z,100468.84
2023-02-12T19:52:21.221Z,100472.91
2023-02-12T19:54:47.704Z,100481.44
2023-02-12T19:57:15.113Z,100471.31
2023-02-12T19:59:42.000Z,100482.09
2023-02-12T20:02:09.701Z,100481.25
2023-02-12T20:04:36.871Z,100475.22
2023-02-12T20:07:03.394Z,100474.66
2023-02-12T20:09:29.889Z,100473.56
2023-02-12T20:11:57.218Z,100471.84
2023-02-12T20:14:23.906Z,100486.53
2023-02-12T20:16:50.880Z,100480.72
2023-02-12T20:19:20.738Z,100487.84
2023-02-12T20:21:53.097Z,100487.00
2023-02-12T20:24:20.549Z,100495.34
2023-02-12T20:26:47.021Z,100482.94
2023-02-12T20:29:13.528Z,100480.72
2023-02-12T20:31:40.042Z,100487.31
2023-02-12T20:34:08.221Z,100488.97
2023-02-12T20:36:36.667Z,100498.31
2023-02-12T20:39:03.424Z,100503.75
2023-02-12T20:41:29.996Z,100504.03
2023-02-12T20:44:00.067Z,100496.94
2023-02-12T20:46:26.744Z,100501.13
2023-02-12T20:48:54.302Z,100503.03
2023-02-12T20:51:22.141Z,100495.06
2023-02-12T20:53:48.992Z,100495.00
2023-02-12T20:56:17.188Z,100500.97
2023-02-12T20:58:44.895Z,100502.56
2023-02-12T21:01:21.076Z,100498.47
2023-02-12T21:03:48.070Z,100501.75
2023-02-12T21:06:14.646Z,100503.44
2023-02-12T21:08:41.458Z,100500.41
2023-02-12T21:11:12.916Z,100506.22
2023-02-12T21:13:39.401Z,100490.53
2023-02-12T21:16:16.348Z,100497.66
2023-02-12T21:18:42.985Z,100486.66
2023-02-12T21:21:14.816Z,100488.84
2023-02-12T21:23:41.639Z,100485.09
2023-02-12T21:26:18.166Z,100481.50
2023-02-12T21:28:45.363Z,100474.34
2023-02-12T21:31:25.249Z,100474.88
2023-02-12T21:33:52.599Z,100478.19
2023-02-12T21:36:23.839Z,100477.84
2023-02-12T21:38:50.590Z,100472.06
2023-02-12T21:41:20.940Z,100478.19
2023-02-12T21:43:50.464Z,100473.72
2023-02-12T21:46:17.435Z,100469.03
2023-02-12T21:48:44.603Z,100469.28
2023-02-12T21:51:17.000Z,100473.22
2023-02-12T21:53:43.482Z,100472.84
2023-02-12T21:56:10.012Z,100476.72
2023-02-12T21:58:36.736Z,100471.75
2023-02-12T22:01:10.799Z,100467.38
2023-02-12T22:03:37.310Z,100469.56
2023-02-12T22:06:04.872Z,100468.53
2023-02-12T22:08:31.555Z,100467.94
2023-02-12T22:10:58.402Z,100467.72
2023-02-12T22:13:25.085Z,100450.81
2023-02-12T22:15:51.568Z,100452.50
2023-02-12T22:18:18.044Z,100459.72
2023-02-12T22:20:44.499Z,100450.03
2023-02-12T22:23:11.564Z,100444.00
2023-02-12T22:25:38.039Z,100448.97
2023-02-12T22:28:04.675Z,100441.81
2023-02-12T22:30:31.273Z,100442.34
2023-02-12T22:32:57.748Z,100437.06
2023-02-12T22:35:24.238Z,100434.06
2023-02-12T22:37:50.714Z,100430.78
2023-02-12T22:40:17.244Z,100427.75
2023-02-12T22:42:43.704Z,100428.50
2023-02-12T22:45:10.274Z,100427.75
2023-02-12T22:47:36.741Z,100425.47
2023-02-12T22:50:03.389Z,100428.50
2023-02-12T22:52:31.248Z,100433.75
2023-02-12T22:54:58.017Z,100432.34
2023-02-12T22:57:24.488Z,100436.81
2023-02-12T22:59:50.970Z,100431.81
2023-02-12T23:02:17.481Z,100432.06
2023-02-12T23:04:43.995Z,100426.56
2023-02-12T23:07:10.457Z,100433.16
2023-02-12T23:09:37.000Z,100434.03
2023-02-12T23:12:07.453Z,100435.66
2023-02-12T23:14:36.215Z,100427.13
2023-02-12T23:17:03.894Z,100431.53
2023-02-12T23:19:30.459Z,100433.72
2023-02-12T23:21:57.288Z,100429.34
2023-02-12T23:24:25.612Z,100424.34
2023-02-12T23:26:53.296Z,100424.34
2023-02-12T23:29:19.870Z,100424.06
2023-02-12T23:31:46.475Z,100415.78
2023-02-12T23:34:13.078Z,100421.31
2023-02-12T23:36:39.851Z,100421.88
2023-02-12T23:39:06.433Z,100421.31
2023-02-12T23:41:32.970Z,100410.84
2023-02-12T23:43:59.462Z,100414.94
2023-02-12T23:46:26.033Z,100423.25
2023-02-12T23:48:52.614Z,100414.97
2023-02-12T23:51:19.108Z,100421.03
2023-02-12T23:53:45.580Z,100429.03
2023-02-12T23:56:12.078Z,100421.84
2023-02-12T23:58:38.531Z,100420.50
